Time;durP1;ratioP1;P1;durP2;ratioP2;P2;SDS_P1;SDS_P2;PMS_P1;PMS_P2;Temp;Humidity;BMP_temperature;BMP_pressure;BME280_temperature;BME280_humidity;BME280_pressure;Samples;Min_cycle;Max_cycle;Signal;HPM_P1;HPM_P2
2022/10/23 00:01:27;;;;;;;29.13;18.30;;;12.60;10.60;;;;;;5030193;28;20480;-45
2022/10/23 00:03:56;;;;;;;36.13;18.97;;;12.60;10.70;;;;;;5031897;28;20445;-45
2022/10/23 00:06:23;;;;;;;31.07;18.03;;;12.50;10.40;;;;;;5030275;28;20950;-44
2022/10/23 00:08:48;;;;;;;31.50;18.73;;;12.50;12.60;;;;;;5029078;28;20453;-44
2022/10/23 00:11:17;;;;;;;35.53;18.93;;;12.50;13.60;;;;;;5030765;28;20939;-45
2022/10/23 00:13:44;;;;;;;39.87;19.40;;;12.50;14.80;;;;;;5023653;28;20229;-45
2022/10/23 00:16:10;;;;;;;41.57;18.70;;;12.50;17.70;;;;;;5026951;28;20446;-45
2022/10/23 00:18:37;;;;;;;30.63;18.50;;;12.40;20.40;;;;;;5025520;28;20525;-45
2022/10/23 00:21:04;;;;;;;38.27;19.93;;;12.40;24.10;;;;;;5028060;28;20903;-45
2022/10/23 00:23:30;;;;;;;35.53;19.57;;;12.40;28.50;;;;;;5033992;28;20912;-45
2022/10/23 00:25:55;;;;;;;32.73;19.50;;;12.40;30.40;;;;;;5029735;28;20467;-45
2022/10/23 00:28:21;;;;;;;37.33;18.47;;;12.30;30.80;;;;;;5032496;28;20296;-45
2022/10/23 00:30:46;;;;;;;34.33;18.30;;;12.30;34.00;;;;;;5030882;28;20550;-45
2022/10/23 00:33:12;;;;;;;31.03;18.10;;;12.30;36.10;;;;;;5033971;28;20186;-45
2022/10/23 00:35:41;;;;;;;59.47;19.37;;;12.30;37.50;;;;;;5032929;28;20645;-45
2022/10/23 00:38:08;;;;;;;39.60;18.20;;;12.20;37.20;;;;;;5014709;28;20183;-45
2022/10/23 00:40:34;;;;;;;34.40;19.23;;;12.20;36.40;;;;;;5019227;28;20457;-45
2022/10/23 00:43:01;;;;;;;28.47;17.30;;;12.10;36.90;;;;;;5034338;28;20556;-45
2022/10/23 00:45:32;;;;;;;31.50;17.47;;;12.10;38.10;;;;;;5032682;28;20484;-45
2022/10/23 00:48:01;;;;;;;33.40;17.57;;;12.10;40.00;;;;;;5034293;28;20505;-45
2022/10/23 00:50:30;;;;;;;29.63;17.27;;;12.00;38.40;;;;;;5033631;28;20437;-45
2022/10/23 00:52:59;;;;;;;34.30;18.13;;;11.90;33.80;;;;;;5034214;28;20417;-45
2022/10/23 00:55:26;;;;;;;34.40;18.23;;;11.90;37.60;;;;;;5032979;28;20446;-45
2022/10/23 00:57:52;;;;;;;33.60;18.47;;;11.80;40.80;;;;;;5033495;28;20394;-45
2022/10/23 01:00:22;;;;;;;32.10;18.70;;;11.80;43.40;;;;;;5033816;28;20892;-45
2022/10/23 01:02:49;;;;;;;32.87;19.63;;;11.80;51.00;;;;;;5033058;28;21259;-45
2022/10/23 01:05:15;;;;;;;31.23;17.60;;;11.80;54.20;;;;;;5022301;28;20473;-45
2022/10/23 01:07:49;;;;;;;37.97;19.33;;;11.70;55.70;;;;;;5033544;28;20453;-45
2022/10/23 01:10:40;;;;;;;42.80;17.90;;;11.70;58.10;;;;;;5032822;28;20436;-45
2022/10/23 01:13:08;;;;;;;44.70;19.87;;;11.70;60.60;;;;;;5033247;28;20414;-45
2022/10/23 01:15:47;;;;;;;34.10;17.93;;;11.70;62.50;;;;;;5032621;28;20449;-45
2022/10/23 01:18:27;;;;;;;34.10;17.97;;;11.60;65.00;;;;;;5014103;28;20403;-45
2022/10/23 01:21:28;;;;;;;31.30;17.17;;;11.60;65.30;;;;;;5023203;28;20433;-46
2022/10/23 01:23:57;;;;;;;38.77;18.90;;;11.50;64.90;;;;;;5034988;28;20444;-45
2022/10/23 01:26:49;;;;;;;33.13;18.33;;;11.50;68.90;;;;;;5032155;28;20438;-45
2022/10/23 01:29:29;;;;;;;41.70;18.13;;;11.50;74.60;;;;;;5033336;28;20433;-46
2022/10/23 01:31:57;;;;;;;32.07;19.23;;;11.50;79.10;;;;;;5034989;28;20432;-46
2022/10/23 01:34:32;;;;;;;29.47;17.40;;;11.50;80.50;;;;;;5029914;28;20508;-45
2022/10/23 01:37:01;;;;;;;37.90;19.20;;;11.50;82.00;;;;;;5029800;28;20472;-45
2022/10/23 01:39:34;;;;;;;28.70;18.80;;;11.50;88.80;;;;;;5033294;28;20410;-45
2022/10/23 01:42:27;;;;;;;35.20;18.97;;;11.50;91.90;;;;;;5032939;28;21224;-46
2022/10/23 01:45:22;;;;;;;32.43;18.63;;;11.50;92.80;;;;;;5028538;28;20489;-46
2022/10/23 01:47:49;;;;;;;34.17;18.40;;;11.40;94.10;;;;;;5025910;28;20452;-46
2022/10/23 01:50:18;;;;;;;33.13;19.50;;;11.40;95.00;;;;;;5033089;28;20437;-47
2022/10/23 01:52:44;;;;;;;37.03;19.17;;;11.40;96.00;;;;;;5032943;28;20538;-46
2022/10/23 01:55:11;;;;;;;49.70;18.90;;;11.40;97.20;;;;;;5031387;28;20457;-46
2022/10/23 01:57:39;;;;;;;36.13;19.60;;;11.40;98.30;;;;;;5032224;28;20199;-47
2022/10/23 02:00:10;;;;;;;47.93;19.60;;;11.40;99.90;;;;;;5032496;28;20517;-46
2022/10/23 02:02:38;;;;;;;38.80;20.20;;;11.40;99.90;;;;;;5029304;28;20452;-46
2022/10/23 02:05:13;;;;;;;42.80;19.90;;;11.30;99.90;;;;;;5032443;28;20469;-46
2022/10/23 02:07:39;;;;;;;29.80;17.83;;;11.30;99.90;;;;;;5031505;28;20429;-47
2022/10/23 02:10:07;;;;;;;35.73;20.50;;;11.30;99.90;;;;;;5032712;28;20428;-47
2022/10/23 02:13:02;;;;;;;38.57;20.80;;;11.40;99.90;;;;;;5032392;28;20198;-46
2022/10/23 02:15:34;;;;;;;40.63;20.97;;;11.50;99.90;;;;;;5032791;28;20426;-47
2022/10/23 02:18:24;;;;;;;39.43;19.50;;;11.40;99.90;;;;;;5031272;28;20802;-46
2022/10/23 02:20:55;;;;;;;39.53;19.47;;;11.40;99.90;;;;;;5032061;28;20890;-46
2022/10/23 02:23:47;;;;;;;40.00;19.97;;;11.50;99.90;;;;;;5032018;28;20426;-46
2022/10/23 02:26:31;;;;;;;39.33;22.20;;;11.50;99.90;;;;;;5031253;28;20566;-47
2022/10/23 02:29:14;;;;;;;37.90;20.50;;;11.60;99.90;;;;;;5032126;28;20418;-46
2022/10/23 02:31:40;;;;;;;38.60;19.60;;;11.60;99.90;;;;;;5031026;28;20498;-46
2022/10/23 02:34:06;;;;;;;40.20;20.10;;;11.60;99.90;;;;;;5032194;28;20492;-46
2022/10/23 02:36:31;;;;;;;47.47;21.47;;;11.60;99.90;;;;;;5031297;28;20191;-46
2022/10/23 02:38:57;;;;;;;47.90;21.23;;;11.50;99.90;;;;;;5031567;28;20180;-46
2022/10/23 02:41:25;;;;;;;35.07;19.03;;;11.40;99.90;;;;;;5031031;28;20198;-46
2022/10/23 02:44:15;;;;;;;41.80;20.20;;;11.40;99.90;;;;;;5031758;28;20587;-47
2022/10/23 02:46:56;;;;;;;35.10;19.20;;;11.40;99.90;;;;;;5031022;28;20951;-45
2022/10/23 02:49:38;;;;;;;32.47;18.83;;;11.40;99.90;;;;;;5031912;28;20782;-46
2022/10/23 02:52:39;;;;;;;44.30;19.97;;;11.40;99.90;;;;;;5028924;28;20500;-46
2022/10/23 02:55:34;;;;;;;45.37;20.83;;;11.30;99.90;;;;;;5029849;28;21073;-46
2022/10/23 02:58:15;;;;;;;39.37;20.57;;;11.30;99.90;;;;;;5007812;28;20819;-47
2022/10/23 03:00:45;;;;;;;42.90;20.53;;;11.30;99.90;;;;;;5021468;28;20914;-47
2022/10/23 03:03:19;;;;;;;39.10;19.13;;;11.30;99.90;;;;;;5031409;28;21034;-47
2022/10/23 03:05:45;;;;;;;39.77;20.17;;;11.30;99.90;;;;;;5030347;28;20477;-45
2022/10/23 03:08:12;;;;;;;33.97;19.70;;;11.20;99.90;;;;;;5031981;28;20453;-46
2022/10/23 03:10:39;;;;;;;34.10;19.20;;;11.30;99.90;;;;;;5030135;28;20194;-46
2022/10/23 03:13:05;;;;;;;40.07;19.10;;;11.20;99.90;;;;;;5031508;28;20406;-47
2022/10/23 03:15:31;;;;;;;30.27;19.30;;;11.20;99.90;;;;;;5031121;28;20463;-46
2022/10/23 03:17:56;;;;;;;38.00;19.93;;;11.20;99.90;;;;;;5031657;28;20163;-46
2022/10/23 03:20:22;;;;;;;34.93;18.87;;;11.10;99.90;;;;;;5030422;28;20938;-46
2022/10/23 03:22:47;;;;;;;40.30;20.17;;;11.10;99.90;;;;;;5030906;28;20240;-47
2022/10/23 03:25:13;;;;;;;29.10;17.17;;;11.10;99.90;;;;;;5030045;28;20297;-47
2022/10/23 03:27:39;;;;;;;34.10;18.00;;;11.00;99.90;;;;;;5027690;28;20822;-47
2022/10/23 03:30:05;;;;;;;38.70;19.80;;;11.00;99.90;;;;;;5030191;28;20233;-46
2022/10/23 03:32:31;;;;;;;37.83;18.63;;;10.90;99.90;;;;;;5029893;28;20190;-46
2022/10/23 03:34:57;;;;;;;36.73;18.30;;;10.90;99.90;;;;;;5030853;28;20438;-47
2022/10/23 03:37:22;;;;;;;37.93;18.10;;;10.90;99.90;;;;;;5030619;28;20219;-47
2022/10/23 03:39:48;;;;;;;44.50;18.07;;;10.80;99.90;;;;;;5029801;28;20558;-46
2022/10/23 03:42:14;;;;;;;35.80;18.60;;;10.80;99.90;;;;;;5032544;28;20194;-46
2022/10/23 03:44:39;;;;;;;35.63;18.33;;;10.70;99.90;;;;;;5030803;28;20322;-46
2022/10/23 03:47:05;;;;;;;25.73;15.97;;;10.70;99.90;;;;;;5029077;28;20187;-46
2022/10/23 03:49:30;;;;;;;33.83;18.13;;;10.70;99.90;;;;;;5030806;28;20229;-47
2022/10/23 03:51:56;;;;;;;34.83;18.83;;;10.60;99.90;;;;;;5027350;28;20644;-47
2022/10/23 03:54:24;;;;;;;37.10;19.47;;;10.60;99.90;;;;;;5028168;28;20218;-47
2022/10/23 03:56:50;;;;;;;38.70;18.10;;;10.60;99.90;;;;;;5030854;28;20248;-47
2022/10/23 03:59:16;;;;;;;35.40;18.70;;;10.50;99.90;;;;;;5030492;28;20790;-48
2022/10/23 04:01:42;;;;;;;37.47;19.50;;;10.50;99.90;;;;;;5031101;28;20273;-48
2022/10/23 04:04:08;;;;;;;45.30;19.10;;;10.50;99.90;;;;;;5029198;28;20583;-47
2022/10/23 04:06:33;;;;;;;38.60;19.40;;;10.50;99.90;;;;;;5030893;28;20179;-48
2022/10/23 04:08:59;;;;;;;42.10;20.97;;;10.50;99.90;;;;;;5030710;28;20183;-46
2022/10/23 04:11:25;;;;;;;38.80;20.43;;;10.40;99.90;;;;;;5031568;28;20194;-48
2022/10/23 04:13:50;;;;;;;44.80;19.20;;;10.40;99.90;;;;;;5030521;28;20699;-48
2022/10/23 04:16:16;;;;;;;37.70;19.63;;;10.40;99.90;;;;;;5030125;28;20183;-48
2022/10/23 04:18:42;;;;;;;38.43;18.63;;;10.40;99.90;;;;;;5030259;28;20499;-48
2022/10/23 04:21:07;;;;;;;40.97;18.13;;;10.30;99.90;;;;;;5030079;28;20278;-47
2022/10/23 04:23:33;;;;;;;45.57;20.17;;;10.30;99.90;;;;;;5029389;28;20257;-57
2022/10/23 04:25:59;;;;;;;39.00;18.33;;;10.30;99.90;;;;;;5017583;28;20736;-56
2022/10/23 04:28:25;;;;;;;42.03;20.53;;;10.30;99.90;;;;;;5028888;28;20938;-56
2022/10/23 04:30:51;;;;;;;43.13;19.40;;;10.20;99.90;;;;;;5030696;28;20629;-56
2022/10/23 04:33:17;;;;;;;40.70;18.23;;;10.10;99.90;;;;;;5029371;28;20445;-56
2022/10/23 04:35:42;;;;;;;34.30;17.87;;;10.10;99.90;;;;;;5029969;28;20966;-56
2022/10/23 04:38:08;;;;;;;32.87;17.27;;;10.10;99.90;;;;;;5030204;28;20441;-56
2022/10/23 04:40:34;;;;;;;39.00;19.47;;;10.00;99.90;;;;;;5029906;28;20275;-56
2022/10/23 04:42:59;;;;;;;39.43;19.23;;;10.00;99.90;;;;;;5030047;28;20202;-57
2022/10/23 04:45:25;;;;;;;39.67;19.30;;;10.00;99.90;;;;;;5029585;28;20974;-56
2022/10/23 04:47:52;;;;;;;40.00;19.00;;;10.00;99.90;;;;;;5030117;28;20183;-55
2022/10/23 04:50:19;;;;;;;41.37;19.40;;;10.00;99.90;;;;;;5028777;28;20224;-55
2022/10/23 04:52:44;;;;;;;34.00;18.80;;;10.00;99.90;;;;;;5023916;28;20418;-55
2022/10/23 04:55:10;;;;;;;39.77;20.23;;;9.90;99.90;;;;;;5030795;28;20491;-61
2022/10/23 04:57:36;;;;;;;44.93;20.30;;;9.90;99.90;;;;;;5029773;28;20191;-55
2022/10/23 05:00:04;;;;;;;40.80;20.60;;;9.90;99.90;;;;;;5029732;28;20460;-55
2022/10/23 05:02:30;;;;;;;34.73;19.23;;;9.80;99.90;;;;;;5031395;28;20195;-56
2022/10/23 05:04:55;;;;;;;45.23;18.90;;;9.80;99.90;;;;;;5032969;28;20460;-55
2022/10/23 05:07:21;;;;;;;38.33;18.60;;;9.80;99.90;;;;;;5033227;28;20535;-55
2022/10/23 05:09:47;;;;;;;31.60;18.23;;;9.80;99.90;;;;;;5033117;28;20211;-55
2022/10/23 05:12:12;;;;;;;30.30;17.73;;;9.80;99.90;;;;;;5031618;28;20194;-54
2022/10/23 05:14:38;;;;;;;36.57;16.90;;;9.70;99.90;;;;;;5033281;28;20290;-55
2022/10/23 05:17:12;;;;;;;31.37;17.60;;;9.70;99.90;;;;;;5032975;28;20206;-54
2022/10/23 05:19:43;;;;;;;35.57;18.80;;;9.70;99.90;;;;;;5032180;28;20248;-54
2022/10/23 05:22:10;;;;;;;39.40;18.00;;;9.80;99.90;;;;;;5031608;28;20452;-55
2022/10/23 05:24:36;;;;;;;31.23;16.33;;;9.80;99.90;;;;;;5031180;28;20472;-54
2022/10/23 05:27:01;;;;;;;30.27;16.77;;;9.80;99.90;;;;;;5032833;28;21218;-55
2022/10/23 05:29:27;;;;;;;34.97;16.60;;;9.80;99.90;;;;;;5032562;28;20623;-54
2022/10/23 05:31:58;;;;;;;34.97;16.30;;;9.80;99.90;;;;;;5031618;28;20193;-54
2022/10/23 05:34:25;;;;;;;37.30;16.63;;;9.80;99.90;;;;;;5035604;28;20175;-54
2022/10/23 05:36:51;;;;;;;26.50;15.47;;;9.80;99.90;;;;;;5032892;28;20422;-54
2022/10/23 05:39:17;;;;;;;31.80;16.10;;;9.70;99.90;;;;;;5030441;28;20473;-54
2022/10/23 05:41:43;;;;;;;30.07;15.50;;;9.70;99.90;;;;;;5033007;28;20434;-53
2022/10/23 05:44:09;;;;;;;33.73;16.97;;;9.70;99.90;;;;;;5034476;28;21006;-53
2022/10/23 05:46:40;;;;;;;35.67;16.60;;;9.70;99.90;;;;;;5032352;28;20620;-54
2022/10/23 05:49:06;;;;;;;38.93;15.77;;;9.70;99.90;;;;;;5019152;28;20183;-53
2022/10/23 05:51:36;;;;;;;33.60;16.03;;;9.70;99.90;;;;;;5032680;28;20449;-53
2022/10/23 05:54:02;;;;;;;25.10;14.33;;;9.70;99.90;;;;;;5032868;28;21067;-55
2022/10/23 05:56:28;;;;;;;32.00;16.43;;;9.60;99.90;;;;;;5032084;28;21243;-54
2022/10/23 05:58:53;;;;;;;29.43;15.57;;;9.60;99.90;;;;;;5032202;28;20445;-52
2022/10/23 06:01:19;;;;;;;27.93;14.90;;;9.60;99.90;;;;;;5030419;28;20415;-53
2022/10/23 06:03:44;;;;;;;36.47;15.30;;;9.60;99.90;;;;;;5031523;28;20226;-49
2022/10/23 06:06:10;;;;;;;29.00;14.60;;;9.60;99.90;;;;;;5032630;28;20238;-49
2022/10/23 06:08:36;;;;;;;27.60;14.30;;;9.60;99.90;;;;;;5032378;28;20179;-49
2022/10/23 06:11:06;;;;;;;29.60;15.47;;;9.60;99.90;;;;;;5030163;28;20249;-49
2022/10/23 06:13:32;;;;;;;28.27;15.77;;;9.60;99.90;;;;;;5029237;28;20191;-49
2022/10/23 06:15:58;;;;;;;32.07;15.70;;;9.60;99.90;;;;;;5032369;28;20911;-50
2022/10/23 06:18:23;;;;;;;38.27;15.00;;;9.60;99.90;;;;;;5031256;28;20265;-49
2022/10/23 06:20:49;;;;;;;35.60;14.70;;;9.60;99.90;;;;;;5033000;28;20269;-49
2022/10/23 06:23:14;;;;;;;25.30;13.97;;;9.70;99.90;;;;;;5031672;28;20190;-49
2022/10/23 06:25:40;;;;;;;28.80;14.93;;;9.70;99.90;;;;;;5032272;28;20229;-50
2022/10/23 06:28:05;;;;;;;30.30;16.20;;;9.70;99.90;;;;;;5031518;28;20215;-49
2022/10/23 06:30:31;;;;;;;32.53;14.70;;;9.70;99.90;;;;;;5027371;28;20195;-49
2022/10/23 06:32:57;;;;;;;29.87;15.07;;;9.70;99.90;;;;;;5026356;28;20572;-50
2022/10/23 06:35:22;;;;;;;33.30;12.60;;;9.70;99.90;;;;;;5032329;28;20565;-50
2022/10/23 06:37:48;;;;;;;27.03;15.00;;;9.70;99.90;;;;;;5032432;28;20192;-49
2022/10/23 06:40:13;;;;;;;28.97;14.50;;;9.70;99.90;;;;;;5033601;28;20198;-50
2022/10/23 06:42:39;;;;;;;27.50;15.07;;;9.80;99.90;;;;;;5031131;28;21026;-50
2022/10/23 06:45:05;;;;;;;33.30;15.23;;;9.80;99.90;;;;;;5031769;28;20652;-50
2022/10/23 06:47:30;;;;;;;27.70;14.73;;;9.80;99.90;;;;;;5030810;28;20274;-50
2022/10/23 06:49:56;;;;;;;30.17;15.37;;;9.80;99.90;;;;;;5029355;28;20520;-50
2022/10/23 06:52:22;;;;;;;32.33;14.73;;;9.90;99.90;;;;;;5032904;28;20244;-50
2022/10/23 06:54:47;;;;;;;38.07;16.70;;;9.90;99.90;;;;;;5031765;28;20197;-50
2022/10/23 06:57:13;;;;;;;33.90;15.47;;;10.00;99.90;;;;;;5031557;28;20190;-52
2022/10/23 06:59:38;;;;;;;37.47;17.07;;;10.00;99.90;;;;;;5028986;28;20191;-52
2022/10/23 07:02:04;;;;;;;26.70;15.50;;;10.00;99.90;;;;;;5031370;28;20293;-52
2022/10/23 07:04:29;;;;;;;43.73;16.00;;;10.00;99.90;;;;;;5030625;28;20302;-52
2022/10/23 07:06:56;;;;;;;32.50;15.20;;;10.00;99.90;;;;;;5030989;28;20187;-53
2022/10/23 07:09:22;;;;;;;34.27;16.50;;;10.10;99.90;;;;;;5032094;28;20191;-53
2022/10/23 07:11:48;;;;;;;32.40;17.57;;;10.10;99.90;;;;;;5029407;28;20441;-53
2022/10/23 07:14:13;;;;;;;32.30;16.00;;;10.20;99.90;;;;;;5031095;28;20735;-53
2022/10/23 07:16:39;;;;;;;30.90;16.60;;;10.30;99.90;;;;;;5033908;28;20815;-54
2022/10/23 07:19:05;;;;;;;29.17;17.23;;;10.40;99.90;;;;;;5031047;28;20291;-54
2022/10/23 07:21:36;;;;;;;32.50;16.90;;;10.50;99.90;;;;;;5030391;28;20241;-54
2022/10/23 07:24:02;;;;;;;33.57;16.90;;;10.60;99.90;;;;;;5019750;28;20445;-53
2022/10/23 07:26:29;;;;;;;32.40;16.03;;;10.60;99.90;;;;;;5028838;28;20469;-55
2022/10/23 07:28:55;;;;;;;26.90;16.27;;;10.70;99.90;;;;;;5030396;28;20947;-54
2022/10/23 07:31:22;;;;;;;32.90;17.13;;;10.80;99.90;;;;;;5030894;28;20524;-54
2022/10/23 07:33:48;;;;;;;27.97;15.90;;;10.90;99.90;;;;;;5031200;28;20449;-54
2022/10/23 07:36:13;;;;;;;28.03;16.40;;;11.00;99.90;;;;;;5030708;28;20437;-55
2022/10/23 07:38:39;;;;;;;33.33;16.23;;;11.10;99.90;;;;;;5030535;28;20919;-55
2022/10/23 07:41:05;;;;;;;34.90;15.37;;;11.20;99.90;;;;;;5028724;28;20237;-55
2022/10/23 07:43:31;;;;;;;31.40;15.40;;;11.30;99.90;;;;;;5030913;28;20191;-56
2022/10/23 07:45:56;;;;;;;25.60;15.83;;;11.40;99.90;;;;;;5029678;28;20886;-56
2022/10/23 07:48:22;;;;;;;23.10;14.53;;;11.50;99.90;;;;;;5030629;28;20179;-57
2022/10/23 07:50:49;;;;;;;27.57;15.63;;;11.80;99.90;;;;;;5029549;28;20179;-57
2022/10/23 07:53:20;;;;;;;22.17;13.30;;;12.80;99.90;;;;;;5030418;28;20838;-59
2022/10/23 07:56:03;;;;;;;15.80;12.77;;;13.90;99.90;;;;;;5030108;28;20521;-63
2022/10/23 07:58:29;;;;;;;16.93;11.70;;;14.80;99.90;;;;;;5030729;28;20512;-60
2022/10/23 08:01:00;;;;;;;16.03;9.70;;;15.30;99.90;;;;;;5031787;28;20445;-57
2022/10/23 08:03:27;;;;;;;15.13;9.70;;;15.40;51.40;;;;;;5029807;28;20935;-56
2022/10/23 08:05:53;;;;;;;14.80;9.30;;;15.30;1.00;;;;;;5033017;28;20473;-54
2022/10/23 08:08:21;;;;;;;15.80;9.87;;;15.20;99.90;;;;;;5027071;28;20445;-53
2022/10/23 08:10:48;;;;;;;11.07;9.13;;;15.80;99.90;;;;;;5030122;28;20443;-51
2022/10/23 08:13:14;;;;;;;13.53;8.53;;;16.30;1.00;;;;;;5029246;28;21015;-50
2022/10/23 08:15:40;;;;;;;12.93;8.87;;;16.40;99.90;;;;;;5029586;28;20465;-50
2022/10/23 08:18:07;;;;;;;12.57;9.33;;;16.10;99.90;;;;;;5030722;28;20402;-50
2022/10/23 08:20:43;;;;;;;13.00;9.03;;;15.70;99.90;;;;;;5030678;28;20429;-50
2022/10/23 08:23:15;;;;;;;14.57;8.70;;;15.40;1.00;;;;;;5030997;28;21077;-50
2022/10/23 08:25:41;;;;;;;13.70;9.47;;;15.20;99.90;;;;;;5030417;28;20515;-51
2022/10/23 08:28:07;;;;;;;13.53;10.07;;;14.90;1.00;;;;;;5030418;28;20767;-50
2022/10/23 08:30:34;;;;;;;10.10;7.87;;;14.90;99.90;;;;;;5030695;28;20575;-49
2022/10/23 08:33:05;;;;;;;11.40;8.47;;;14.90;99.90;;;;;;5030247;28;20429;-50
2022/10/23 08:35:38;;;;;;;12.03;8.80;;;14.90;99.90;;;;;;5030479;28;20924;-50
2022/10/23 08:38:04;;;;;;;9.43;8.07;;;14.90;99.90;;;;;;5032783;28;20398;-49
2022/10/23 08:40:30;;;;;;;12.80;7.70;;;14.90;99.90;;;;;;5034367;28;21318;-49
2022/10/23 08:43:10;;;;;;;11.10;7.77;;;15.00;99.90;;;;;;5034367;28;20414;-49
2022/10/23 08:45:49;;;;;;;19.23;8.00;;;15.00;99.90;;;;;;5014151;28;20227;-49
2022/10/23 08:48:31;;;;;;;16.00;7.90;;;15.00;99.90;;;;;;5014585;28;20517;-47
2022/10/23 08:51:05;;;;;;;11.27;6.53;;;15.10;99.90;;;;;;5024956;28;20495;-48
2022/10/23 08:53:40;;;;;;;13.30;8.27;;;15.10;99.90;;;;;;5033843;28;20448;-48
2022/10/23 08:56:27;;;;;;;15.90;8.00;;;15.00;18.10;;;;;;5033841;28;20935;-48
2022/10/23 08:59:27;;;;;;;11.90;6.70;;;15.00;99.90;;;;;;5036421;28;20447;-49
2022/10/23 09:02:16;;;;;;;13.43;8.63;;;15.00;99.90;;;;;;5032562;28;20425;-48
2022/10/23 09:04:46;;;;;;;11.27;6.47;;;15.00;99.90;;;;;;5033766;28;20860;-48
2022/10/23 09:07:38;;;;;;;10.13;6.80;;;14.90;99.90;;;;;;5032426;28;20433;-48
2022/10/23 09:10:16;;;;;;;12.57;7.10;;;14.90;99.90;;;;;;5029553;28;20814;-48
2022/10/23 09:12:42;;;;;;;8.70;5.97;;;14.90;99.90;;;;;;5029188;28;20437;-48
2022/10/23 09:15:28;;;;;;;14.30;7.43;;;14.90;99.90;;;;;;5030125;28;20926;-48
2022/10/23 09:18:09;;;;;;;10.83;6.87;;;14.90;99.90;;;;;;5033095;28;20213;-48
2022/10/23 09:20:35;;;;;;;10.30;6.60;;;15.00;99.90;;;;;;5031716;28;20532;-48
2022/10/23 09:23:03;;;;;;;15.30;7.30;;;15.10;99.90;;;;;;5033912;28;20406;-44
2022/10/23 09:25:33;;;;;;;18.90;7.00;;;15.20;99.90;;;;;;5033139;28;20514;-44
2022/10/23 09:28:00;;;;;;;8.40;6.13;;;15.30;99.90;;;;;;5033704;28;20896;-44
2022/10/23 09:30:33;;;;;;;10.37;6.53;;;15.40;99.90;;;;;;5032814;28;20511;-44
2022/10/23 09:33:00;;;;;;;12.57;7.23;;;15.50;99.90;;;;;;5033502;28;20522;-44
2022/10/23 09:35:29;;;;;;;7.80;6.27;;;15.60;99.90;;;;;;5031981;28;20409;-44
2022/10/23 09:37:55;;;;;;;11.47;6.17;;;15.60;10.70;;;;;;5033307;28;20420;-44
2022/10/23 09:40:40;;;;;;;9.77;6.70;;;15.60;1.00;;;;;;5033268;28;20454;-44
2022/10/23 09:43:18;;;;;;;9.43;6.93;;;15.70;1.00;;;;;;5013713;28;20439;-44
2022/10/23 09:45:54;;;;;;;11.50;6.33;;;15.90;99.90;;;;;;5015660;28;20561;-48
2022/10/23 09:48:20;;;;;;;6.67;5.77;;;15.90;99.90;;;;;;5024057;28;20504;-48
2022/10/23 09:50:51;;;;;;;8.20;5.60;;;16.00;23.50;;;;;;5027651;28;20477;-48
2022/10/23 09:53:30;;;;;;;11.67;6.23;;;16.10;1.00;;;;;;5032772;28;20179;-48
2022/10/23 09:55:59;;;;;;;7.97;5.70;;;16.00;99.90;;;;;;5032217;28;20511;-48
2022/10/23 09:58:38;;;;;;;10.40;5.67;;;16.10;99.90;;;;;;5011540;28;20431;-48
2022/10/23 10:01:04;;;;;;;6.87;6.10;;;16.10;99.90;;;;;;5025975;28;20847;-48
2022/10/23 10:03:30;;;;;;;12.50;5.80;;;16.20;99.90;;;;;;5032034;28;20931;-48
2022/10/23 10:05:59;;;;;;;10.70;6.20;;;16.30;99.90;;;;;;5032503;28;20511;-48
2022/10/23 10:08:29;;;;;;;12.63;6.20;;;16.30;1.00;;;;;;5031419;28;20760;-48
2022/10/23 10:11:24;;;;;;;8.70;6.00;;;16.40;61.10;;;;;;5032880;28;20416;-48
2022/10/23 10:14:14;;;;;;;15.37;5.90;;;16.50;99.90;;;;;;5012566;28;20867;-47
2022/10/23 10:16:57;;;;;;;8.70;5.63;;;16.60;1.00;;;;;;5015160;28;20438;-48
2022/10/23 10:19:47;;;;;;;9.83;5.23;;;16.60;1.00;;;;;;5032400;28;20409;-48
2022/10/23 10:22:29;;;;;;;7.40;5.40;;;16.60;99.90;;;;;;5031637;28;20973;-45
2022/10/23 10:24:55;;;;;;;8.67;5.17;;;16.80;99.90;;;;;;5032355;28;20846;-44
2022/10/23 10:27:44;;;;;;;13.47;6.27;;;16.90;12.80;;;;;;5030723;28;20440;-44
2022/10/23 10:30:23;;;;;;;13.67;5.63;;;17.00;1.00;;;;;;5029919;28;20297;-44
2022/10/23 10:33:11;;;;;;;14.33;5.70;;;17.00;94.50;;;;;;5029855;28;20442;-45
2022/10/23 10:35:44;;;;;;;10.20;5.40;;;17.00;99.90;;;;;;5031142;28;20965;-45
2022/10/23 10:38:35;;;;;;;9.80;5.13;;;17.00;99.90;;;;;;5031564;28;20516;-45
2022/10/23 10:41:15;;;;;;;11.20;5.27;;;17.00;1.00;;;;;;5031236;28;20445;-43
2022/10/23 10:43:43;;;;;;;12.40;5.23;;;17.00;4.60;;;;;;5031566;28;20782;-43
2022/10/23 10:46:15;;;;;;;7.83;5.37;;;17.10;41.00;;;;;;5027144;28;20509;-43
2022/10/23 10:49:10;;;;;;;7.33;5.13;;;17.50;1.00;;;;;;5032071;28;20444;-42
2022/10/23 10:51:58;;;;;;;8.33;4.50;;;17.80;99.90;;;;;;5031344;28;20468;-45
2022/10/23 10:55:21;;;;;;;8.00;4.80;;;18.00;99.90;;;;;;5031276;28;20521;-45
2022/10/23 10:58:00;;;;;;;9.60;4.90;;;18.40;1.00;;;;;;4998032;28;20449;-45
2022/10/23 11:00:28;;;;;;;9.00;4.03;;;18.80;99.90;;;;;;5029809;28;20821;-45
2022/10/23 11:02:54;;;;;;;6.80;4.00;;;19.00;99.90;;;;;;5031734;28;20744;-45
2022/10/23 11:05:36;;;;;;;8.90;4.90;;;19.20;1.00;;;;;;5030370;28;20469;-44
2022/10/23 11:08:13;;;;;;;7.50;5.00;;;19.20;62.20;;;;;;5029556;28;21030;-47
2022/10/23 11:10:44;;;;;;;8.00;4.47;;;19.30;99.90;;;;;;5051338;28;20405;-48
2022/10/23 11:13:24;;;;;;;7.23;4.27;;;19.40;1.00;;;;;;5040658;28;20429;-47
2022/10/23 11:15:51;;;;;;;11.37;5.20;;;19.20;1.00;;;;;;5029856;28;20445;-47
2022/10/23 11:18:27;;;;;;;12.90;4.30;;;19.00;1.00;;;;;;5029924;28;20447;-45
2022/10/23 11:20:55;;;;;;;12.23;4.87;;;18.90;1.00;;;;;;5032713;28;20495;-45
2022/10/23 11:23:46;;;;;;;10.07;5.20;;;18.90;1.00;;;;;;5034677;28;21315;-42
2022/10/23 11:26:32;;;;;;;13.63;5.00;;;18.90;1.00;;;;;;5029403;28;20468;-42
2022/10/23 11:29:09;;;;;;;9.17;5.27;;;19.20;1.00;;;;;;5030567;28;20480;-43
2022/10/23 11:31:56;;;;;;;11.13;5.00;;;19.50;1.00;;;;;;5029081;28;20440;-42
2022/10/23 11:34:54;;;;;;;9.57;4.90;;;19.70;1.00;;;;;;5031172;28;21141;-42
2022/10/23 11:37:21;;;;;;;8.13;4.57;;;19.90;1.00;;;;;;5024169;28;20970;-42
2022/10/23 11:40:05;;;;;;;14.40;5.00;;;20.30;1.00;;;;;;5030131;28;20448;-42
2022/10/23 11:42:46;;;;;;;9.83;4.70;;;20.70;1.00;;;;;;5035020;28;20979;-45
2022/10/23 11:45:39;;;;;;;8.93;4.63;;;21.20;1.00;;;;;;5032559;28;20489;-42
2022/10/23 11:48:17;;;;;;;9.67;5.30;;;21.60;1.00;;;;;;5028638;28;20425;-45
2022/10/23 11:50:42;;;;;;;9.07;4.43;;;21.90;1.00;;;;;;5027634;28;20443;-45
2022/10/23 11:53:26;;;;;;;9.20;4.50;;;22.10;1.00;;;;;;5030554;28;20772;-45
2022/10/23 11:56:09;;;;;;;7.37;4.27;;;22.20;1.00;;;;;;5042185;28;20186;-42
2022/10/23 11:58:44;;;;;;;6.80;4.07;;;22.50;1.00;;;;;;5027483;28;20478;-43
2022/10/23 12:01:41;;;;;;;9.40;4.07;;;22.40;1.00;;;;;;5031562;28;21036;-42
2022/10/23 12:04:12;;;;;;;9.03;4.20;;;22.00;1.00;;;;;;5033118;28;20531;-42
2022/10/23 12:06:39;;;;;;;8.13;4.40;;;21.80;1.00;;;;;;5027277;28;20476;-42
2022/10/23 12:09:24;;;;;;;10.73;4.30;;;21.90;1.00;;;;;;5032322;28;21079;-42
2022/10/23 12:12:03;;;;;;;9.23;4.40;;;22.10;1.00;;;;;;5030513;28;20418;-42
2022/10/23 12:14:33;;;;;;;5.53;3.50;;;22.40;1.00;;;;;;5041841;28;20428;-42
2022/10/23 12:17:00;;;;;;;7.13;3.50;;;22.80;1.00;;;;;;5031206;28;20429;-43
2022/10/23 12:19:28;;;;;;;7.80;4.03;;;23.20;1.00;;;;;;5031035;28;20449;-43
2022/10/23 12:21:58;;;;;;;5.60;3.67;;;23.40;1.00;;;;;;5028345;28;20441;-42
2022/10/23 12:24:26;;;;;;;5.17;2.93;;;23.60;1.00;;;;;;5043529;28;20499;-44
2022/10/23 12:27:32;;;;;;;7.30;3.67;;;23.80;1.00;;;;;;5033460;28;20441;-43
2022/10/23 12:30:21;;;;;;;9.60;4.07;;;23.70;1.00;;;;;;5034537;28;20453;-43
2022/10/23 12:32:55;;;;;;;7.30;3.77;;;23.00;1.00;;;;;;5036239;28;20938;-43
2022/10/23 12:35:46;;;;;;;11.20;3.80;;;22.30;1.00;;;;;;5041583;28;20463;-43
2022/10/23 12:38:26;;;;;;;12.30;4.70;;;21.50;1.00;;;;;;5029513;28;21000;-43
2022/10/23 12:40:59;;;;;;;7.40;4.20;;;21.00;1.00;;;;;;5031223;28;20882;-44
2022/10/23 12:43:30;;;;;;;6.50;4.67;;;20.70;1.00;;;;;;5033284;28;21696;-43
2022/10/23 12:46:03;;;;;;;15.20;4.50;;;20.40;1.00;;;;;;5034703;28;20506;-43
2022/10/23 12:48:31;;;;;;;7.40;3.70;;;20.00;1.00;;;;;;5035093;28;20445;-44
2022/10/23 12:50:57;;;;;;;9.80;4.60;;;19.60;1.00;;;;;;5041985;28;20450;-43
2022/10/23 12:53:23;;;;;;;15.07;4.80;;;19.40;1.00;;;;;;5038408;28;20425;-43
2022/10/23 12:55:54;;;;;;;9.27;4.27;;;19.20;1.00;;;;;;5036358;28;20249;-43
2022/10/23 12:58:30;;;;;;;10.07;4.27;;;18.90;1.00;;;;;;5031103;28;20498;-43